Cooperstown, Kentucky
Current Conditions -  °F | °C
As of 7:53 PM on Thursday 20 Nov 2014 (Local Time) from KBWG Reporting Station
Clear Clear  
Wind Chill: 33°   Ceiling: Unl
Heat Index: 33°   Visibility: 10mi
Dew Point: 19°   Wind: 0mph
Humidity: 56%   Direction: NA
Pressure: 30.27"   Gusts: NA
Location:  36.8547°N, 86.8859°W
Report Text: KBWG 210153Z AUTO 00000KT 10SM CLR 01/M07 A3027 RMK AO2 SLP255 T00061072
Loading
Personal Weather Stations






























Interactive Weather Map New forecast layout! Learn more

10-Day Weather Forecast

Advertisements
Track Severe Weather on mobile